PWSweather.com
Personal Weather Stations
Station Observations
PICKERING
North Yorkshire, PickeringGB

North YorkshirePickeringGB

Lat: 54.2494, Lon: -0.7725

Elevation: 192

Station Type: Oregon Scientific WMR100

http://www.yorkshirewalker.co.uk/weather/

High Low Average
Temperature 44.2°F6.8°C 26.8°F-2.9°C 37.3°F2.9°C
Dew Point 41.0°F5.0°C 19.4°F-7.0°C 32.5°F0.3°C
Winds 10.1 mph 16.3 kmh Calm Calm 2.0 mph ESE3.2 kmh ESE
Wind Gusts 17.0 mph27.4 kmh -- 4.0 mph6.4 kmh
Humidity 88% 78% 82%
Pressure 29.71 in1006.1 mb 29.33 in993.2 mb -
Precipitation 0.81 in20.6 mm - -
Hour Temp Dew Point Humidity Winds Wind Gusts Pressure Precip Precip Rate Daily Precip Total
12:00 AM 29.3°F-1.5°C 21.2°F-6.0°C 78% 0.9 mph NE1.4 kmh NE 2.0 mph3.2 kmh 29.65 in1004.1 mb 0.00 in0.0 mm 0.00 in0.0 mm 0.00 in0.0 mm
12:05 AM 29.3°F-1.5°C 21.2°F-6.0°C 78% 0.4 mph N0.6 kmh N 1.3 mph2.1 kmh 29.71 in1006.1 mb 0.00 in0.0 mm 0.00 in0.0 mm 0.00 in0.0 mm
12:10 AM 29.3°F-1.5°C 21.2°F-6.0°C 78% 0.4 mph NE0.6 kmh NE 1.6 mph2.6 kmh 29.71 in1006.1 mb 0.00 in0.0 mm 0.00 in0.0 mm 0.00 in0.0 mm
12:15 AM 28.9°F-1.7°C 21.2°F-6.0°C 78% 0.6 mph NE1.0 kmh NE 1.6 mph2.6 kmh 29.71 in1006.1 mb 0.00 in0.0 mm 0.00 in0.0 mm 0.00 in0.0 mm
12:20 AM 28.9°F-1.7°C 21.2°F-6.0°C 78% 0.6 mph NE1.0 kmh NE 1.1 mph1.8 kmh 29.71 in1006.1 mb 0.00 in0.0 mm 0.00 in0.0 mm 0.00 in0.0 mm
12:25 AM 29.3°F-1.5°C 21.2°F-6.0°C 78% 0.9 mph NE1.4 kmh NE 1.3 mph2.1 kmh 29.71 in1006.1 mb 0.00 in0.0 mm 0.00 in0.0 mm 0.00 in0.0 mm
12:30 AM 28.9°F-1.7°C 21.2°F-6.0°C 78% 1.1 mph NE1.8 kmh NE 2.7 mph4.3 kmh 29.71 in1006.1 mb 0.00 in0.0 mm 0.00 in0.0 mm 0.00 in0.0 mm
12:35 AM 28.9°F-1.7°C 21.2°F-6.0°C 78% 1.1 mph NE1.8 kmh NE 2.7 mph4.3 kmh 29.71 in1006.1 mb 0.00 in0.0 mm 0.00 in0.0 mm 0.00 in0.0 mm
12:40 AM 28.9°F-1.7°C 21.2°F-6.0°C 78% 1.0 mph NE1.6 kmh NE 1.6 mph2.6 kmh 29.71 in1006.1 mb 0.00 in0.0 mm 0.00 in0.0 mm 0.00 in0.0 mm
12:45 AM 28.8°F-1.8°C 21.2°F-6.0°C 78% 0.8 mph NE1.3 kmh NE 1.3 mph2.1 kmh 29.71 in1006.1 mb 0.00 in0.0 mm 0.00 in0.0 mm 0.00 in0.0 mm
12:50 AM 28.6°F-1.9°C 21.2°F-6.0°C 79% 0.7 mph NE1.1 kmh NE 1.3 mph2.1 kmh 29.71 in1006.1 mb 0.00 in0.0 mm 0.00 in0.0 mm 0.00 in0.0 mm
12:55 AM 28.4°F-2.0°C 21.2°F-6.0°C 78% 0.6 mph NE1.0 kmh NE 1.3 mph2.1 kmh 29.71 in1006.1 mb 0.00 in0.0 mm 0.00 in0.0 mm 0.00 in0.0 mm
01:00 AM 28.4°F-2.0°C 21.2°F-6.0°C 79% 0.4 mph NE0.6 kmh NE 1.1 mph1.8 kmh 29.71 in1006.1 mb 0.00 in0.0 mm 0.00 in0.0 mm 0.00 in0.0 mm
01:05 AM 28.4°F-2.0°C 21.2°F-6.0°C 79% 0.5 mph NNE0.8 kmh NNE 2.0 mph3.2 kmh 29.68 in1005.1 mb 0.00 in0.0 mm 0.00 in0.0 mm 0.00 in0.0 mm
01:10 AM 28.2°F-2.1°C 21.2°F-6.0°C 79% 0.5 mph NNE0.8 kmh NNE 2.0 mph3.2 kmh 29.68 in1005.1 mb 0.00 in0.0 mm 0.00 in0.0 mm 0.00 in0.0 mm
01:15 AM 28.2°F-2.1°C 21.2°F-6.0°C 79% 0.5 mph NE0.8 kmh NE 1.1 mph1.8 kmh 29.68 in1005.1 mb 0.00 in0.0 mm 0.00 in0.0 mm 0.00 in0.0 mm
01:20 AM 28.4°F-2.0°C 21.2°F-6.0°C 79% 1.0 mph NE1.6 kmh NE 2.0 mph3.2 kmh 29.71 in1006.1 mb 0.00 in0.0 mm 0.00 in0.0 mm 0.00 in0.0 mm
01:25 AM 28.2°F-2.1°C 21.2°F-6.0°C 79% 1.3 mph NE2.1 kmh NE 2.0 mph3.2 kmh 29.71 in1006.1 mb 0.00 in0.0 mm 0.00 in0.0 mm 0.00 in0.0 mm
01:30 AM 28.0°F-2.2°C 21.2°F-6.0°C 79% 1.0 mph NE1.6 kmh NE 2.0 mph3.2 kmh 29.71 in1006.1 mb 0.00 in0.0 mm 0.00 in0.0 mm 0.00 in0.0 mm
01:35 AM 28.0°F-2.2°C 21.2°F-6.0°C 79% 0.7 mph NE1.1 kmh NE 1.3 mph2.1 kmh 29.71 in1006.1 mb 0.00 in0.0 mm 0.00 in0.0 mm 0.00 in0.0 mm
01:40 AM 27.9°F-2.3°C 21.2°F-6.0°C 79% 1.0 mph NE1.6 kmh NE 2.5 mph4.0 kmh 29.71 in1006.1 mb 0.00 in0.0 mm 0.00 in0.0 mm 0.00 in0.0 mm
01:45 AM 28.0°F-2.2°C 21.2°F-6.0°C 79% 1.1 mph NE1.8 kmh NE 2.5 mph4.0 kmh 29.71 in1006.1 mb 0.00 in0.0 mm 0.00 in0.0 mm 0.00 in0.0 mm
01:50 AM 28.0°F-2.2°C 21.2°F-6.0°C 79% 0.7 mph NE1.1 kmh NE 1.3 mph2.1 kmh 29.71 in1006.1 mb 0.00 in0.0 mm 0.00 in0.0 mm 0.00 in0.0 mm
01:55 AM 28.0°F-2.2°C 21.2°F-6.0°C 79% 0.8 mph NE1.3 kmh NE 1.3 mph2.1 kmh 29.71 in1006.1 mb 0.00 in0.0 mm 0.00 in0.0 mm 0.00 in0.0 mm
02:00 AM 27.9°F-2.3°C 21.2°F-6.0°C 79% 1.0 mph NE1.6 kmh NE 1.3 mph2.1 kmh 29.71 in1006.1 mb 0.00 in0.0 mm 0.00 in0.0 mm 0.00 in0.0 mm
02:05 AM 27.5°F-2.5°C 21.2°F-6.0°C 79% 0.7 mph NE1.1 kmh NE 1.1 mph1.8 kmh 29.62 in1003.0 mb 0.00 in0.0 mm 0.00 in0.0 mm 0.00 in0.0 mm
02:10 AM 27.7°F-2.4°C 21.2°F-6.0°C 79% 0.8 mph NE1.3 kmh NE 1.6 mph2.6 kmh 29.62 in1003.0 mb 0.00 in0.0 mm 0.00 in0.0 mm 0.00 in0.0 mm
02:15 AM 27.7°F-2.4°C 21.2°F-6.0°C 79% 1.1 mph NE1.8 kmh NE 1.6 mph2.6 kmh 29.62 in1003.0 mb 0.00 in0.0 mm 0.00 in0.0 mm 0.00 in0.0 mm
02:20 AM 27.7°F-2.4°C 21.2°F-6.0°C 79% 0.8 mph NE1.3 kmh NE 1.3 mph2.1 kmh 29.65 in1004.1 mb 0.00 in0.0 mm 0.00 in0.0 mm 0.00 in0.0 mm
02:25 AM 27.5°F-2.5°C 21.2°F-6.0°C 79% 0.6 mph NE1.0 kmh NE 1.6 mph2.6 kmh 29.65 in1004.1 mb 0.00 in0.0 mm 0.00 in0.0 mm 0.00 in0.0 mm
02:30 AM 27.3°F-2.6°C 21.2°F-6.0°C 79% 0.3 mph NE0.5 kmh NE 1.6 mph2.6 kmh 29.65 in1004.1 mb 0.00 in0.0 mm 0.00 in0.0 mm 0.00 in0.0 mm
02:35 AM 27.3°F-2.6°C 21.2°F-6.0°C 79% 0.1 mph NNE0.2 kmh NNE 1.1 mph1.8 kmh 29.62 in1003.0 mb 0.00 in0.0 mm 0.00 in0.0 mm 0.00 in0.0 mm
02:40 AM 27.1°F-2.7°C 21.2°F-6.0°C 79% 0.4 mph NE0.6 kmh NE 1.3 mph2.1 kmh 29.62 in1003.0 mb 0.00 in0.0 mm 0.00 in0.0 mm 0.00 in0.0 mm
02:45 AM 27.3°F-2.6°C 21.2°F-6.0°C 79% 0.6 mph NE1.0 kmh NE 1.3 mph2.1 kmh 29.62 in1003.0 mb 0.00 in0.0 mm 0.00 in0.0 mm 0.00 in0.0 mm
02:50 AM 27.3°F-2.6°C 21.2°F-6.0°C 79% 0.9 mph NE1.4 kmh NE 2.2 mph3.5 kmh 29.65 in1004.1 mb 0.00 in0.0 mm 0.00 in0.0 mm 0.00 in0.0 mm
02:55 AM 27.1°F-2.7°C 21.2°F-6.0°C 79% 1.1 mph NE1.8 kmh NE 2.2 mph3.5 kmh 29.65 in1004.1 mb 0.00 in0.0 mm 0.00 in0.0 mm 0.00 in0.0 mm
03:00 AM 27.1°F-2.7°C 21.2°F-6.0°C 79% 0.7 mph NE1.1 kmh NE 1.6 mph2.6 kmh 29.65 in1004.1 mb 0.00 in0.0 mm 0.00 in0.0 mm 0.00 in0.0 mm
03:05 AM 27.0°F-2.8°C 19.4°F-7.0°C 79% 0.6 mph NE1.0 kmh NE 1.3 mph2.1 kmh 29.62 in1003.0 mb 0.00 in0.0 mm 0.00 in0.0 mm 0.00 in0.0 mm
03:10 AM 27.0°F-2.8°C 19.4°F-7.0°C 79% 0.5 mph NE0.8 kmh NE 1.3 mph2.1 kmh 29.62 in1003.0 mb 0.00 in0.0 mm 0.00 in0.0 mm 0.00 in0.0 mm
03:15 AM 27.0°F-2.8°C 19.4°F-7.0°C 79% 0.9 mph NE1.4 kmh NE 2.0 mph3.2 kmh 29.62 in1003.0 mb 0.00 in0.0 mm 0.00 in0.0 mm 0.00 in0.0 mm
03:20 AM 27.0°F-2.8°C 19.4°F-7.0°C 79% 1.0 mph NE1.6 kmh NE 2.0 mph3.2 kmh 29.62 in1003.0 mb 0.00 in0.0 mm 0.00 in0.0 mm 0.00 in0.0 mm
03:25 AM 27.0°F-2.8°C 19.4°F-7.0°C 79% 0.7 mph NE1.1 kmh NE 1.3 mph2.1 kmh 29.62 in1003.0 mb 0.00 in0.0 mm 0.00 in0.0 mm 0.00 in0.0 mm
03:30 AM 27.0°F-2.8°C 19.4°F-7.0°C 79% 0.7 mph NE1.1 kmh NE 1.3 mph2.1 kmh 29.62 in1003.0 mb 0.00 in0.0 mm 0.00 in0.0 mm 0.00 in0.0 mm
03:35 AM 26.8°F-2.9°C 19.4°F-7.0°C 79% 0.7 mph NE1.1 kmh NE 1.3 mph2.1 kmh 29.65 in1004.1 mb 0.00 in0.0 mm 0.00 in0.0 mm 0.00 in0.0 mm
03:40 AM 27.3°F-2.6°C 21.2°F-6.0°C 79% 0.9 mph NE1.4 kmh NE 1.6 mph2.6 kmh 29.65 in1004.1 mb 0.00 in0.0 mm 0.00 in0.0 mm 0.00 in0.0 mm
03:45 AM 27.5°F-2.5°C 21.2°F-6.0°C 79% 1.0 mph NE1.6 kmh NE 1.6 mph2.6 kmh 29.65 in1004.1 mb 0.00 in0.0 mm 0.00 in0.0 mm 0.00 in0.0 mm
03:50 AM 27.9°F-2.3°C 21.2°F-6.0°C 79% 0.5 mph NE0.8 kmh NE 1.1 mph1.8 kmh 29.59 in1002.0 mb 0.00 in0.0 mm 0.00 in0.0 mm 0.00 in0.0 mm
03:55 AM 28.2°F-2.1°C 21.2°F-6.0°C 79% 0.5 mph NE0.8 kmh NE 2.0 mph3.2 kmh 29.59 in1002.0 mb 0.00 in0.0 mm 0.00 in0.0 mm 0.00 in0.0 mm
04:00 AM 28.6°F-1.9°C 23.0°F-5.0°C 80% 0.7 mph NE1.1 kmh NE 2.0 mph3.2 kmh 29.59 in1002.0 mb 0.00 in0.0 mm 0.00 in0.0 mm 0.00 in0.0 mm
04:05 AM 28.8°F-1.8°C 23.0°F-5.0°C 80% 0.8 mph NE1.3 kmh NE 2.2 mph3.5 kmh 29.62 in1003.0 mb 0.00 in0.0 mm 0.00 in0.0 mm 0.00 in0.0 mm
04:10 AM 28.9°F-1.7°C 23.0°F-5.0°C 80% 0.6 mph NE1.0 kmh NE 2.2 mph3.5 kmh 29.62 in1003.0 mb 0.00 in0.0 mm 0.00 in0.0 mm 0.00 in0.0 mm
04:15 AM 29.1°F-1.6°C 23.0°F-5.0°C 80% Calm Calm -- 29.62 in1003.0 mb 0.00 in0.0 mm 0.00 in0.0 mm 0.00 in0.0 mm
04:20 AM 29.3°F-1.5°C 23.0°F-5.0°C 80% 0.1 mph NE0.2 kmh NE 0.9 mph1.4 kmh 29.62 in1003.0 mb 0.00 in0.0 mm 0.00 in0.0 mm 0.00 in0.0 mm
04:25 AM 29.5°F-1.4°C 23.0°F-5.0°C 80% 0.7 mph NE1.1 kmh NE 3.6 mph5.8 kmh 29.62 in1003.0 mb 0.00 in0.0 mm 0.00 in0.0 mm 0.00 in0.0 mm
04:30 AM 29.5°F-1.4°C 23.0°F-5.0°C 80% 1.0 mph NE1.6 kmh NE 3.6 mph5.8 kmh 29.62 in1003.0 mb 0.00 in0.0 mm 0.00 in0.0 mm 0.00 in0.0 mm
04:35 AM 29.7°F-1.3°C 23.0°F-5.0°C 80% 0.5 mph NE0.8 kmh NE 3.1 mph5.0 kmh 29.62 in1003.0 mb 0.00 in0.0 mm 0.00 in0.0 mm 0.00 in0.0 mm
04:40 AM 29.8°F-1.2°C 23.0°F-5.0°C 80% 0.4 mph NE0.6 kmh NE 1.6 mph2.6 kmh 29.62 in1003.0 mb 0.00 in0.0 mm 0.00 in0.0 mm 0.00 in0.0 mm
04:45 AM 29.8°F-1.2°C 23.0°F-5.0°C 80% 0.3 mph NE0.5 kmh NE 1.6 mph2.6 kmh 29.62 in1003.0 mb 0.00 in0.0 mm 0.00 in0.0 mm 0.00 in0.0 mm
04:50 AM 30.2°F-1.0°C 23.0°F-5.0°C 80% 0.3 mph ENE0.5 kmh ENE 1.1 mph1.8 kmh 29.59 in1002.0 mb 0.00 in0.0 mm 0.00 in0.0 mm 0.00 in0.0 mm
04:55 AM 30.2°F-1.0°C 23.0°F-5.0°C 80% 0.3 mph E0.5 kmh E 1.1 mph1.8 kmh 29.59 in1002.0 mb 0.00 in0.0 mm 0.00 in0.0 mm 0.00 in0.0 mm
05:00 AM 30.2°F-1.0°C 23.0°F-5.0°C 80% 0.2 mph E0.3 kmh E 1.1 mph1.8 kmh 29.59 in1002.0 mb 0.00 in0.0 mm 0.00 in0.0 mm 0.00 in0.0 mm
05:05 AM 30.6°F-0.8°C 23.0°F-5.0°C 80% 0.1 mph E0.2 kmh E 0.9 mph1.4 kmh 29.65 in1004.1 mb 0.00 in0.0 mm 0.00 in0.0 mm 0.00 in0.0 mm
05:10 AM 30.6°F-0.8°C 23.0°F-5.0°C 81% 0.1 mph E0.2 kmh E 0.9 mph1.4 kmh 29.65 in1004.1 mb 0.00 in0.0 mm 0.00 in0.0 mm 0.00 in0.0 mm
05:15 AM 30.7°F-0.7°C 24.8°F-4.0°C 81% Calm Calm -- 29.65 in1004.1 mb 0.00 in0.0 mm 0.00 in0.0 mm 0.00 in0.0 mm
05:20 AM 30.7°F-0.7°C 24.8°F-4.0°C 81% Calm Calm -- 29.65 in1004.1 mb 0.00 in0.0 mm 0.00 in0.0 mm 0.00 in0.0 mm
05:25 AM 30.7°F-0.7°C 24.8°F-4.0°C 81% Calm Calm -- 29.65 in1004.1 mb 0.00 in0.0 mm 0.00 in0.0 mm 0.00 in0.0 mm
05:30 AM 31.1°F-0.5°C 24.8°F-4.0°C 81% Calm Calm -- 29.65 in1004.1 mb 0.00 in0.0 mm 0.00 in0.0 mm 0.00 in0.0 mm
05:35 AM 31.1°F-0.5°C 24.8°F-4.0°C 81% Calm Calm -- 29.65 in1004.1 mb 0.00 in0.0 mm 0.00 in0.0 mm 0.00 in0.0 mm
05:40 AM 31.1°F-0.5°C 24.8°F-4.0°C 81% Calm Calm -- 29.65 in1004.1 mb 0.00 in0.0 mm 0.00 in0.0 mm 0.00 in0.0 mm
05:45 AM 31.1°F-0.5°C 24.8°F-4.0°C 81% Calm Calm -- 29.65 in1004.1 mb 0.00 in0.0 mm 0.00 in0.0 mm 0.00 in0.0 mm
05:50 AM 31.1°F-0.5°C 24.8°F-4.0°C 81% 0.1 mph S0.2 kmh S 1.1 mph1.8 kmh 29.65 in1004.1 mb 0.00 in0.0 mm 0.00 in0.0 mm 0.00 in0.0 mm
05:55 AM 31.3°F-0.4°C 24.8°F-4.0°C 81% 0.2 mph S0.3 kmh S 1.1 mph1.8 kmh 29.65 in1004.1 mb 0.00 in0.0 mm 0.00 in0.0 mm 0.00 in0.0 mm
06:00 AM 31.3°F-0.4°C 24.8°F-4.0°C 81% 0.1 mph S0.2 kmh S 1.1 mph1.8 kmh 29.65 in1004.1 mb 0.00 in0.0 mm 0.00 in0.0 mm 0.00 in0.0 mm
06:05 AM 31.3°F-0.4°C 24.8°F-4.0°C 81% Calm Calm -- 29.65 in1004.1 mb 0.00 in0.0 mm 0.00 in0.0 mm 0.00 in0.0 mm
06:10 AM 31.3°F-0.4°C 24.8°F-4.0°C 81% Calm Calm -- 29.65 in1004.1 mb 0.00 in0.0 mm 0.00 in0.0 mm 0.00 in0.0 mm
06:15 AM 31.3°F-0.4°C 24.8°F-4.0°C 81% Calm Calm -- 29.65 in1004.1 mb 0.00 in0.0 mm 0.00 in0.0 mm 0.00 in0.0 mm
06:20 AM 31.5°F-0.3°C 24.8°F-4.0°C 81% 0.1 mph NE0.2 kmh NE 0.9 mph1.4 kmh 29.65 in1004.1 mb 0.00 in0.0 mm 0.00 in0.0 mm 0.00 in0.0 mm
06:25 AM 31.5°F-0.3°C 24.8°F-4.0°C 81% 0.2 mph NE0.3 kmh NE 0.9 mph1.4 kmh 29.65 in1004.1 mb 0.00 in0.0 mm 0.00 in0.0 mm 0.00 in0.0 mm
06:30 AM 31.6°F-0.2°C 24.8°F-4.0°C 81% 0.4 mph NE0.6 kmh NE 2.7 mph4.3 kmh 29.65 in1004.1 mb 0.00 in0.0 mm 0.00 in0.0 mm 0.00 in0.0 mm
06:35 AM 31.6°F-0.2°C 24.8°F-4.0°C 81% 0.5 mph NE0.8 kmh NE 2.7 mph4.3 kmh 29.62 in1003.0 mb 0.00 in0.0 mm 0.00 in0.0 mm 0.00 in0.0 mm
06:40 AM 31.8°F-0.1°C 24.8°F-4.0°C 81% 0.1 mph NNE0.2 kmh NNE 1.1 mph1.8 kmh 29.62 in1003.0 mb 0.00 in0.0 mm 0.00 in0.0 mm 0.00 in0.0 mm
06:45 AM 31.8°F-0.1°C 24.8°F-4.0°C 81% 0.1 mph NNE0.2 kmh NNE 1.1 mph1.8 kmh 29.62 in1003.0 mb 0.00 in0.0 mm 0.00 in0.0 mm 0.00 in0.0 mm
06:50 AM 31.8°F-0.1°C 24.8°F-4.0°C 81% Calm Calm -- 29.65 in1004.1 mb 0.00 in0.0 mm 0.00 in0.0 mm 0.00 in0.0 mm
06:55 AM 31.8°F-0.1°C 24.8°F-4.0°C 81% 0.2 mph NE0.3 kmh NE 0.9 mph1.4 kmh 29.65 in1004.1 mb 0.00 in0.0 mm 0.00 in0.0 mm 0.00 in0.0 mm
07:00 AM 31.8°F-0.1°C 26.6°F-3.0°C 82% 0.2 mph NE0.3 kmh NE 0.9 mph1.4 kmh 29.65 in1004.1 mb 0.00 in0.0 mm 0.00 in0.0 mm 0.00 in0.0 mm
07:05 AM 32.0°F0.0°C 26.6°F-3.0°C 82% Calm Calm -- 29.65 in1004.1 mb 0.00 in0.0 mm 0.00 in0.0 mm 0.00 in0.0 mm
07:10 AM 32.0°F0.0°C 26.6°F-3.0°C 82% Calm Calm -- 29.65 in1004.1 mb 0.00 in0.0 mm 0.00 in0.0 mm 0.00 in0.0 mm
07:15 AM 32.0°F0.0°C 26.6°F-3.0°C 82% 0.2 mph NE0.3 kmh NE 1.1 mph1.8 kmh 29.65 in1004.1 mb 0.00 in0.0 mm 0.00 in0.0 mm 0.00 in0.0 mm
07:20 AM 32.0°F0.0°C 26.6°F-3.0°C 82% 0.3 mph NE0.5 kmh NE 1.1 mph1.8 kmh 29.65 in1004.1 mb 0.00 in0.0 mm 0.00 in0.0 mm 0.00 in0.0 mm
07:25 AM 32.0°F0.0°C 26.6°F-3.0°C 82% 0.4 mph NE0.6 kmh NE 1.1 mph1.8 kmh 29.65 in1004.1 mb 0.00 in0.0 mm 0.00 in0.0 mm 0.00 in0.0 mm
07:30 AM 32.0°F0.0°C 26.6°F-3.0°C 82% 0.4 mph ENE0.6 kmh ENE 1.1 mph1.8 kmh 29.65 in1004.1 mb 0.00 in0.0 mm 0.00 in0.0 mm 0.00 in0.0 mm
07:35 AM 32.2°F0.1°C 28.4°F-2.0°C 82% 0.4 mph ENE0.6 kmh ENE 1.1 mph1.8 kmh 29.65 in1004.1 mb 0.00 in0.0 mm 0.00 in0.0 mm 0.00 in0.0 mm
07:40 AM 32.2°F0.1°C 28.4°F-2.0°C 82% 0.7 mph ENE1.1 kmh ENE 1.3 mph2.1 kmh 29.65 in1004.1 mb 0.00 in0.0 mm 0.00 in0.0 mm 0.00 in0.0 mm
07:45 AM 32.2°F0.1°C 28.4°F-2.0°C 82% 0.4 mph ENE0.6 kmh ENE 1.3 mph2.1 kmh 29.65 in1004.1 mb 0.00 in0.0 mm 0.00 in0.0 mm 0.00 in0.0 mm
07:50 AM 32.2°F0.1°C 28.4°F-2.0°C 82% 0.2 mph NNE0.3 kmh NNE 0.9 mph1.4 kmh 29.65 in1004.1 mb 0.00 in0.0 mm 0.00 in0.0 mm 0.00 in0.0 mm
07:55 AM 32.2°F0.1°C 28.4°F-2.0°C 82% 0.1 mph N0.2 kmh N 0.9 mph1.4 kmh 29.65 in1004.1 mb 0.00 in0.0 mm 0.00 in0.0 mm 0.00 in0.0 mm
08:00 AM 32.4°F0.2°C 28.4°F-2.0°C 82% 0.4 mph N0.6 kmh N 1.6 mph2.6 kmh 29.65 in1004.1 mb 0.00 in0.0 mm 0.00 in0.0 mm 0.00 in0.0 mm
08:05 AM 32.4°F0.2°C 28.4°F-2.0°C 82% 1.1 mph N1.8 kmh N 2.5 mph4.0 kmh 29.65 in1004.1 mb 0.00 in0.0 mm 0.00 in0.0 mm 0.00 in0.0 mm
08:10 AM 32.4°F0.2°C 28.4°F-2.0°C 82% 1.2 mph N1.9 kmh N 2.5 mph4.0 kmh 29.65 in1004.1 mb 0.00 in0.0 mm 0.00 in0.0 mm 0.00 in0.0 mm
08:15 AM 32.4°F0.2°C 28.4°F-2.0°C 82% 0.6 mph NE1.0 kmh NE 1.3 mph2.1 kmh 29.65 in1004.1 mb 0.00 in0.0 mm 0.00 in0.0 mm 0.00 in0.0 mm
08:20 AM 32.5°F0.3°C 28.4°F-2.0°C 82% 0.4 mph NE0.6 kmh NE 1.3 mph2.1 kmh 29.65 in1004.1 mb 0.00 in0.0 mm 0.00 in0.0 mm 0.00 in0.0 mm
08:25 AM 32.7°F0.4°C 28.4°F-2.0°C 82% 0.2 mph NE0.3 kmh NE 1.1 mph1.8 kmh 29.65 in1004.1 mb 0.00 in0.0 mm 0.00 in0.0 mm 0.00 in0.0 mm
08:30 AM 32.7°F0.4°C 28.4°F-2.0°C 82% 0.5 mph E0.8 kmh E 2.0 mph3.2 kmh 29.65 in1004.1 mb 0.00 in0.0 mm 0.00 in0.0 mm 0.00 in0.0 mm
08:35 AM 32.7°F0.4°C 28.4°F-2.0°C 82% 0.5 mph E0.8 kmh E 2.0 mph3.2 kmh 29.65 in1004.1 mb 0.00 in0.0 mm 0.00 in0.0 mm 0.00 in0.0 mm
08:40 AM 32.7°F0.4°C 28.4°F-2.0°C 82% 0.1 mph E0.2 kmh E 0.9 mph1.4 kmh 29.65 in1004.1 mb 0.00 in0.0 mm 0.00 in0.0 mm 0.00 in0.0 mm
08:45 AM 32.9°F0.5°C 28.4°F-2.0°C 82% 0.1 mph E0.2 kmh E 0.9 mph1.4 kmh 29.65 in1004.1 mb 0.00 in0.0 mm 0.00 in0.0 mm 0.00 in0.0 mm
08:50 AM 33.1°F0.6°C 28.4°F-2.0°C 82% Calm Calm -- 29.65 in1004.1 mb 0.00 in0.0 mm 0.00 in0.0 mm 0.00 in0.0 mm
08:55 AM 33.1°F0.6°C 28.4°F-2.0°C 82% Calm Calm -- 29.65 in1004.1 mb 0.00 in0.0 mm 0.00 in0.0 mm 0.00 in0.0 mm
09:00 AM 33.3°F0.7°C 28.4°F-2.0°C 82% Calm Calm -- 29.65 in1004.1 mb 0.00 in0.0 mm 0.00 in0.0 mm 0.00 in0.0 mm
09:05 AM 33.3°F0.7°C 28.4°F-2.0°C 82% Calm Calm -- 29.65 in1004.1 mb 0.00 in0.0 mm 0.00 in0.0 mm 0.00 in0.0 mm
09:10 AM 33.4°F0.8°C 30.2°F-1.0°C 82% Calm Calm -- 29.65 in1004.1 mb 0.00 in0.0 mm 0.00 in0.0 mm 0.00 in0.0 mm
09:15 AM 33.6°F0.9°C 30.2°F-1.0°C 82% Calm Calm -- 29.65 in1004.1 mb 0.00 in0.0 mm 0.00 in0.0 mm 0.00 in0.0 mm
09:20 AM 33.6°F0.9°C 30.2°F-1.0°C 82% Calm Calm -- 29.65 in1004.1 mb 0.00 in0.0 mm 0.00 in0.0 mm 0.00 in0.0 mm
09:25 AM 33.8°F1.0°C 30.2°F-1.0°C 82% Calm Calm -- 29.65 in1004.1 mb 0.00 in0.0 mm 0.00 in0.0 mm 0.00 in0.0 mm
09:30 AM 33.8°F1.0°C 30.2°F-1.0°C 82% Calm Calm -- 29.65 in1004.1 mb 0.00 in0.0 mm 0.00 in0.0 mm 0.00 in0.0 mm
09:35 AM 34.0°F1.1°C 30.2°F-1.0°C 82% Calm Calm -- 29.65 in1004.1 mb 0.00 in0.0 mm 0.00 in0.0 mm 0.00 in0.0 mm
09:40 AM 34.0°F1.1°C 30.2°F-1.0°C 82% 0.2 mph NE0.3 kmh NE 1.1 mph1.8 kmh 29.65 in1004.1 mb 0.00 in0.0 mm 0.00 in0.0 mm 0.00 in0.0 mm
09:45 AM 34.2°F1.2°C 30.2°F-1.0°C 82% 0.2 mph NE0.3 kmh NE 1.1 mph1.8 kmh 29.65 in1004.1 mb 0.00 in0.0 mm 0.00 in0.0 mm 0.00 in0.0 mm
09:50 AM 34.2°F1.2°C 30.2°F-1.0°C 82% Calm Calm -- 29.65 in1004.1 mb 0.00 in0.0 mm 0.00 in0.0 mm 0.00 in0.0 mm
09:55 AM 34.2°F1.2°C 30.2°F-1.0°C 82% 0.1 mph WSW0.2 kmh WSW 0.9 mph1.4 kmh 29.65 in1004.1 mb 0.00 in0.0 mm 0.00 in0.0 mm 0.00 in0.0 mm
10:00 AM 34.3°F1.3°C 30.2°F-1.0°C 82% 0.1 mph WSW0.2 kmh WSW 0.9 mph1.4 kmh 29.65 in1004.1 mb 0.00 in0.0 mm 0.00 in0.0 mm 0.00 in0.0 mm
10:05 AM 34.5°F1.4°C 30.2°F-1.0°C 82% Calm Calm -- 29.65 in1004.1 mb 0.00 in0.0 mm 0.00 in0.0 mm 0.00 in0.0 mm
10:10 AM 34.5°F1.4°C 30.2°F-1.0°C 82% 0.1 mph NNW0.2 kmh NNW 0.9 mph1.4 kmh 29.65 in1004.1 mb 0.00 in0.0 mm 0.00 in0.0 mm 0.00 in0.0 mm
10:15 AM 34.7°F1.5°C 30.2°F-1.0°C 82% 0.1 mph NNW0.2 kmh NNW 0.9 mph1.4 kmh 29.65 in1004.1 mb 0.00 in0.0 mm 0.00 in0.0 mm 0.00 in0.0 mm
10:20 AM 34.9°F1.6°C 30.2°F-1.0°C 82% 0.1 mph NNW0.2 kmh NNW 0.9 mph1.4 kmh 29.65 in1004.1 mb 0.00 in0.0 mm 0.00 in0.0 mm 0.00 in0.0 mm
10:25 AM 35.1°F1.7°C 30.2°F-1.0°C 82% 0.2 mph NE0.3 kmh NE 0.9 mph1.4 kmh 29.65 in1004.1 mb 0.00 in0.0 mm 0.00 in0.0 mm 0.00 in0.0 mm
10:30 AM 35.4°F1.9°C 30.2°F-1.0°C 82% 0.3 mph NE0.5 kmh NE 1.6 mph2.6 kmh 29.65 in1004.1 mb 0.00 in0.0 mm 0.00 in0.0 mm 0.00 in0.0 mm
10:35 AM 35.6°F2.0°C 32.0°F0.0°C 82% 0.2 mph E0.3 kmh E 1.6 mph2.6 kmh 29.65 in1004.1 mb 0.00 in0.0 mm 0.00 in0.0 mm 0.00 in0.0 mm
10:40 AM 36.0°F2.2°C 32.0°F0.0°C 82% 0.6 mph ENE1.0 kmh ENE 2.2 mph3.5 kmh 29.65 in1004.1 mb 0.00 in0.0 mm 0.00 in0.0 mm 0.00 in0.0 mm
10:45 AM 35.8°F2.1°C 32.0°F0.0°C 82% 1.5 mph ENE2.4 kmh ENE 2.7 mph4.3 kmh 29.65 in1004.1 mb 0.00 in0.0 mm 0.00 in0.0 mm 0.00 in0.0 mm
10:50 AM 36.3°F2.4°C 32.0°F0.0°C 82% 1.7 mph ENE2.7 kmh ENE 2.7 mph4.3 kmh 29.65 in1004.1 mb 0.00 in0.0 mm 0.00 in0.0 mm 0.00 in0.0 mm
10:55 AM 36.7°F2.6°C 32.0°F0.0°C 82% 1.1 mph E1.8 kmh E 2.7 mph4.3 kmh 29.65 in1004.1 mb 0.00 in0.0 mm 0.00 in0.0 mm 0.00 in0.0 mm
11:00 AM 37.2°F2.9°C 33.8°F1.0°C 82% 0.6 mph NE1.0 kmh NE 1.6 mph2.6 kmh 29.65 in1004.1 mb 0.00 in0.0 mm 0.00 in0.0 mm 0.00 in0.0 mm
11:05 AM 37.6°F3.1°C 33.8°F1.0°C 82% 0.7 mph NE1.1 kmh NE 1.6 mph2.6 kmh 29.65 in1004.1 mb 0.00 in0.0 mm 0.00 in0.0 mm 0.00 in0.0 mm
11:10 AM 37.8°F3.2°C 33.8°F1.0°C 82% 0.5 mph E0.8 kmh E 1.3 mph2.1 kmh 29.65 in1004.1 mb 0.00 in0.0 mm 0.00 in0.0 mm 0.00 in0.0 mm
11:15 AM 38.1°F3.4°C 33.8°F1.0°C 82% 0.3 mph E0.5 kmh E 0.9 mph1.4 kmh 29.65 in1004.1 mb 0.00 in0.0 mm 0.00 in0.0 mm 0.00 in0.0 mm
11:20 AM 38.1°F3.4°C 33.8°F1.0°C 82% 0.4 mph ESE0.6 kmh ESE 0.9 mph1.4 kmh 29.62 in1003.0 mb 0.00 in0.0 mm 0.00 in0.0 mm 0.00 in0.0 mm
11:25 AM 38.1°F3.4°C 33.8°F1.0°C 82% 0.4 mph SE0.6 kmh SE 0.9 mph1.4 kmh 29.62 in1003.0 mb 0.00 in0.0 mm 0.00 in0.0 mm 0.00 in0.0 mm
11:30 AM 38.5°F3.6°C 33.8°F1.0°C 81% 0.2 mph S0.3 kmh S 0.9 mph1.4 kmh 29.62 in1003.0 mb 0.00 in0.0 mm 0.00 in0.0 mm 0.00 in0.0 mm
11:35 AM 40.6°F4.8°C 35.6°F2.0°C 82% 0.2 mph SSE0.3 kmh SSE 1.1 mph1.8 kmh 29.62 in1003.0 mb 0.00 in0.0 mm 0.00 in0.0 mm 0.00 in0.0 mm
11:40 AM 41.2°F5.1°C 35.6°F2.0°C 81% 0.1 mph SE0.2 kmh SE 1.1 mph1.8 kmh 29.62 in1003.0 mb 0.00 in0.0 mm 0.00 in0.0 mm 0.00 in0.0 mm
11:45 AM 41.0°F5.0°C 35.6°F2.0°C 80% 0.5 mph SW0.8 kmh SW 1.6 mph2.6 kmh 29.62 in1003.0 mb 0.00 in0.0 mm 0.00 in0.0 mm 0.00 in0.0 mm
11:50 AM 41.4°F5.2°C 35.6°F2.0°C 80% 1.3 mph WSW2.1 kmh WSW 2.7 mph4.3 kmh 29.62 in1003.0 mb 0.00 in0.0 mm 0.00 in0.0 mm 0.00 in0.0 mm
11:55 AM 40.3°F4.6°C 35.6°F2.0°C 80% 1.0 mph WSW1.6 kmh WSW 2.7 mph4.3 kmh 29.62 in1003.0 mb 0.00 in0.0 mm 0.00 in0.0 mm 0.00 in0.0 mm
12:00 PM 40.5°F4.7°C 35.6°F2.0°C 80% 0.3 mph WSW0.5 kmh WSW 1.6 mph2.6 kmh 29.62 in1003.0 mb 0.00 in0.0 mm 0.00 in0.0 mm 0.00 in0.0 mm
12:05 PM 40.3°F4.6°C 35.6°F2.0°C 80% 0.6 mph SW1.0 kmh SW 1.1 mph1.8 kmh 29.62 in1003.0 mb 0.00 in0.0 mm 0.00 in0.0 mm 0.00 in0.0 mm
12:10 PM 40.1°F4.5°C 35.6°F2.0°C 80% 0.8 mph SW1.3 kmh SW 1.6 mph2.6 kmh 29.62 in1003.0 mb 0.00 in0.0 mm 0.00 in0.0 mm 0.00 in0.0 mm
12:15 PM 40.1°F4.5°C 35.6°F2.0°C 80% 0.4 mph SW0.6 kmh SW 1.6 mph2.6 kmh 29.62 in1003.0 mb 0.00 in0.0 mm 0.00 in0.0 mm 0.00 in0.0 mm
12:20 PM 40.5°F4.7°C 35.6°F2.0°C 80% 0.4 mph E0.6 kmh E 1.6 mph2.6 kmh 29.62 in1003.0 mb 0.00 in0.0 mm 0.00 in0.0 mm 0.00 in0.0 mm
12:25 PM 40.6°F4.8°C 35.6°F2.0°C 80% 0.6 mph E1.0 kmh E 1.6 mph2.6 kmh 29.62 in1003.0 mb 0.00 in0.0 mm 0.00 in0.0 mm 0.00 in0.0 mm
12:30 PM 40.8°F4.9°C 35.6°F2.0°C 80% 0.6 mph ENE1.0 kmh ENE 1.6 mph2.6 kmh 29.62 in1003.0 mb 0.00 in0.0 mm 0.00 in0.0 mm 0.00 in0.0 mm
12:35 PM 41.4°F5.2°C 35.6°F2.0°C 80% 0.8 mph ENE1.3 kmh ENE 2.0 mph3.2 kmh 29.59 in1002.0 mb 0.00 in0.0 mm 0.00 in0.0 mm 0.00 in0.0 mm
12:40 PM 41.5°F5.3°C 37.4°F3.0°C 80% 0.7 mph ENE1.1 kmh ENE 2.5 mph4.0 kmh 29.59 in1002.0 mb 0.00 in0.0 mm 0.00 in0.0 mm 0.00 in0.0 mm
12:45 PM 41.5°F5.3°C 37.4°F3.0°C 80% 0.4 mph E0.6 kmh E 2.5 mph4.0 kmh 29.59 in1002.0 mb 0.00 in0.0 mm 0.00 in0.0 mm 0.00 in0.0 mm
12:50 PM 41.9°F5.5°C 37.4°F3.0°C 80% 0.3 mph E0.5 kmh E 2.2 mph3.5 kmh 29.59 in1002.0 mb 0.00 in0.0 mm 0.00 in0.0 mm 0.00 in0.0 mm
12:55 PM 42.1°F5.6°C 37.4°F3.0°C 80% 1.1 mph SSE1.8 kmh SSE 4.3 mph6.9 kmh 29.59 in1002.0 mb 0.00 in0.0 mm 0.00 in0.0 mm 0.00 in0.0 mm
01:00 PM 42.1°F5.6°C 37.4°F3.0°C 79% 1.4 mph SE2.3 kmh SE 4.3 mph6.9 kmh 29.59 in1002.0 mb 0.00 in0.0 mm 0.00 in0.0 mm 0.00 in0.0 mm
01:05 PM 41.9°F5.5°C 37.4°F3.0°C 79% 1.0 mph SE1.6 kmh SE 3.6 mph5.8 kmh 29.59 in1002.0 mb 0.00 in0.0 mm 0.00 in0.0 mm 0.00 in0.0 mm
01:10 PM 41.9°F5.5°C 37.4°F3.0°C 79% 1.4 mph SSE2.3 kmh SSE 4.3 mph6.9 kmh 29.59 in1002.0 mb 0.00 in0.0 mm 0.00 in0.0 mm 0.00 in0.0 mm
01:15 PM 42.1°F5.6°C 37.4°F3.0°C 79% 1.5 mph SSE2.4 kmh SSE 4.3 mph6.9 kmh 29.59 in1002.0 mb 0.00 in0.0 mm 0.00 in0.0 mm 0.00 in0.0 mm
01:20 PM 42.3°F5.7°C 37.4°F3.0°C 79% 1.1 mph SE1.8 kmh SE 2.5 mph4.0 kmh 29.41 in995.9 mb 0.00 in0.0 mm 0.00 in0.0 mm 0.00 in0.0 mm
01:25 PM 42.3°F5.7°C 37.4°F3.0°C 79% 1.5 mph SSE2.4 kmh SSE 5.4 mph8.7 kmh 29.41 in995.9 mb 0.00 in0.0 mm 0.00 in0.0 mm 0.00 in0.0 mm
01:30 PM 42.4°F5.8°C 37.4°F3.0°C 79% 1.6 mph SSE2.6 kmh SSE 5.4 mph8.7 kmh 29.41 in995.9 mb 0.00 in0.0 mm 0.00 in0.0 mm 0.00 in0.0 mm
01:35 PM 42.4°F5.8°C 37.4°F3.0°C 79% 0.7 mph SSE1.1 kmh SSE 2.5 mph4.0 kmh 29.56 in1001.0 mb 0.00 in0.0 mm 0.00 in0.0 mm 0.00 in0.0 mm
01:40 PM 42.4°F5.8°C 37.4°F3.0°C 80% 0.3 mph E0.5 kmh E 2.5 mph4.0 kmh 29.56 in1001.0 mb 0.00 in0.0 mm 0.00 in0.0 mm 0.00 in0.0 mm
01:45 PM 42.6°F5.9°C 37.4°F3.0°C 80% 0.6 mph SE1.0 kmh SE 1.6 mph2.6 kmh 29.56 in1001.0 mb 0.00 in0.0 mm 0.00 in0.0 mm 0.00 in0.0 mm
01:50 PM 43.0°F6.1°C 37.4°F3.0°C 80% 0.7 mph SE1.1 kmh SE 2.0 mph3.2 kmh 29.56 in1001.0 mb 0.00 in0.0 mm 0.00 in0.0 mm 0.00 in0.0 mm
01:55 PM 43.2°F6.2°C 37.4°F3.0°C 80% 1.0 mph SSE1.6 kmh SSE 2.9 mph4.7 kmh 29.56 in1001.0 mb 0.00 in0.0 mm 0.00 in0.0 mm 0.00 in0.0 mm
02:00 PM 43.3°F6.3°C 37.4°F3.0°C 80% 1.5 mph SSE2.4 kmh SSE 2.9 mph4.7 kmh 29.56 in1001.0 mb 0.00 in0.0 mm 0.00 in0.0 mm 0.00 in0.0 mm
02:05 PM 43.5°F6.4°C 37.4°F3.0°C 80% 1.6 mph S2.6 kmh S 3.8 mph6.1 kmh 29.56 in1001.0 mb 0.00 in0.0 mm 0.00 in0.0 mm 0.00 in0.0 mm
02:10 PM 43.5°F6.4°C 37.4°F3.0°C 80% 2.4 mph S3.9 kmh S 5.6 mph9.0 kmh 29.56 in1001.0 mb 0.00 in0.0 mm 0.00 in0.0 mm 0.00 in0.0 mm
02:15 PM 43.7°F6.5°C 39.2°F4.0°C 80% 3.0 mph S4.8 kmh S 5.6 mph9.0 kmh 29.56 in1001.0 mb 0.00 in0.0 mm 0.00 in0.0 mm 0.00 in0.0 mm
02:20 PM 43.7°F6.5°C 39.2°F4.0°C 80% 3.3 mph S5.3 kmh S 5.6 mph9.0 kmh 29.56 in1001.0 mb 0.00 in0.0 mm 0.00 in0.0 mm 0.00 in0.0 mm
02:25 PM 43.9°F6.6°C 39.2°F4.0°C 80% 3.6 mph S5.8 kmh S 6.3 mph10.1 kmh 29.56 in1001.0 mb 0.00 in0.0 mm 0.00 in0.0 mm 0.00 in0.0 mm
02:30 PM 44.1°F6.7°C 39.2°F4.0°C 80% 5.6 mph S9.0 kmh S 11.4 mph18.3 kmh 29.56 in1001.0 mb 0.00 in0.0 mm 0.00 in0.0 mm 0.00 in0.0 mm
02:35 PM 44.1°F6.7°C 37.4°F3.0°C 79% 6.6 mph SSW10.6 kmh SSW 11.4 mph18.3 kmh 29.56 in1001.0 mb 0.00 in0.0 mm 0.00 in0.0 mm 0.00 in0.0 mm
02:40 PM 44.1°F6.7°C 37.4°F3.0°C 79% 5.7 mph S9.2 kmh S 7.6 mph12.2 kmh 29.56 in1001.0 mb 0.00 in0.0 mm 0.00 in0.0 mm 0.00 in0.0 mm
02:45 PM 44.1°F6.7°C 37.4°F3.0°C 79% 5.4 mph S8.7 kmh S 7.8 mph12.6 kmh 29.56 in1001.0 mb 0.00 in0.0 mm 0.00 in0.0 mm 0.00 in0.0 mm
02:50 PM 44.1°F6.7°C 37.4°F3.0°C 79% 6.1 mph S9.8 kmh S 9.4 mph15.1 kmh 29.56 in1001.0 mb 0.00 in0.0 mm 0.00 in0.0 mm 0.00 in0.0 mm
02:55 PM 43.9°F6.6°C 37.4°F3.0°C 79% 6.2 mph S10.0 kmh S 9.4 mph15.1 kmh 29.56 in1001.0 mb 0.00 in0.0 mm 0.00 in0.0 mm 0.00 in0.0 mm
03:00 PM 43.9°F6.6°C 37.4°F3.0°C 79% 4.8 mph S7.7 kmh S 8.1 mph13.0 kmh 29.56 in1001.0 mb 0.00 in0.0 mm 0.00 in0.0 mm 0.00 in0.0 mm
03:05 PM 43.7°F6.5°C 37.4°F3.0°C 79% 4.4 mph SSE7.1 kmh SSE 9.8 mph15.8 kmh 29.53 in1000.0 mb 0.00 in0.0 mm 0.00 in0.0 mm 0.00 in0.0 mm
03:10 PM 43.7°F6.5°C 39.2°F4.0°C 80% 5.3 mph S8.5 kmh S 9.8 mph15.8 kmh 29.53 in1000.0 mb 0.00 in0.0 mm 0.00 in0.0 mm 0.00 in0.0 mm
03:15 PM 43.7°F6.5°C 39.2°F4.0°C 80% 6.6 mph S10.6 kmh S 10.5 mph16.9 kmh 29.53 in1000.0 mb 0.00 in0.0 mm 0.00 in0.0 mm 0.00 in0.0 mm
03:20 PM 43.7°F6.5°C 39.2°F4.0°C 80% 6.5 mph S10.5 kmh S 10.5 mph16.9 kmh 29.53 in1000.0 mb 0.00 in0.0 mm 0.00 in0.0 mm 0.00 in0.0 mm
03:25 PM 43.7°F6.5°C 39.2°F4.0°C 80% 5.0 mph S8.0 kmh S 7.6 mph12.2 kmh 29.53 in1000.0 mb 0.00 in0.0 mm 0.00 in0.0 mm 0.00 in0.0 mm
03:30 PM 43.7°F6.5°C 39.2°F4.0°C 80% 4.1 mph S6.6 kmh S 6.5 mph10.5 kmh 29.53 in1000.0 mb 0.00 in0.0 mm 0.00 in0.0 mm 0.00 in0.0 mm
03:35 PM 43.7°F6.5°C 39.2°F4.0°C 80% 4.1 mph SSE6.6 kmh SSE 7.8 mph12.6 kmh 29.53 in1000.0 mb 0.00 in0.0 mm 0.00 in0.0 mm 0.00 in0.0 mm
03:40 PM 43.7°F6.5°C 39.2°F4.0°C 80% 3.7 mph S6.0 kmh S 7.8 mph12.6 kmh 29.53 in1000.0 mb 0.00 in0.0 mm 0.00 in0.0 mm 0.00 in0.0 mm
03:45 PM 43.7°F6.5°C 39.2°F4.0°C 80% 2.7 mph S4.3 kmh S 4.9 mph7.9 kmh 29.53 in1000.0 mb 0.00 in0.0 mm 0.00 in0.0 mm 0.00 in0.0 mm
03:50 PM 43.7°F6.5°C 39.2°F4.0°C 80% 2.9 mph S4.7 kmh S 4.9 mph7.9 kmh 29.53 in1000.0 mb 0.00 in0.0 mm 0.00 in0.0 mm 0.00 in0.0 mm
03:55 PM 43.7°F6.5°C 39.2°F4.0°C 81% 2.9 mph S4.7 kmh S 5.6 mph9.0 kmh 29.53 in1000.0 mb 0.00 in0.0 mm 0.00 in0.0 mm 0.00 in0.0 mm
04:00 PM 43.7°F6.5°C 39.2°F4.0°C 81% 3.4 mph SSE5.5 kmh SSE 7.8 mph12.6 kmh 29.53 in1000.0 mb 0.00 in0.0 mm 0.00 in0.0 mm 0.00 in0.0 mm
04:05 PM 43.7°F6.5°C 39.2°F4.0°C 81% 3.2 mph SSE5.1 kmh SSE 7.8 mph12.6 kmh 29.53 in1000.0 mb 0.00 in0.0 mm 0.00 in0.0 mm 0.00 in0.0 mm
04:10 PM 43.5°F6.4°C 37.4°F3.0°C 81% 3.1 mph S5.0 kmh S 6.0 mph9.7 kmh 29.53 in1000.0 mb 0.00 in0.0 mm 0.00 in0.0 mm 0.00 in0.0 mm
04:15 PM 43.5°F6.4°C 39.2°F4.0°C 82% 3.5 mph S5.6 kmh S 6.5 mph10.5 kmh 29.53 in1000.0 mb 0.00 in0.0 mm 0.00 in0.0 mm 0.00 in0.0 mm
04:20 PM 43.3°F6.3°C 39.2°F4.0°C 82% 3.1 mph S5.0 kmh S 6.5 mph10.5 kmh 29.53 in1000.0 mb 0.00 in0.0 mm 0.00 in0.0 mm 0.00 in0.0 mm
04:25 PM 43.2°F6.2°C 39.2°F4.0°C 82% 2.2 mph S3.5 kmh S 3.8 mph6.1 kmh 29.53 in1000.0 mb 0.00 in0.0 mm 0.00 in0.0 mm 0.00 in0.0 mm
04:30 PM 43.2°F6.2°C 39.2°F4.0°C 83% 1.4 mph S2.3 kmh S 3.6 mph5.8 kmh 29.53 in1000.0 mb 0.11 in2.8 mm 1.32 in33.5 mm 0.11 in2.8 mm
04:35 PM 43.0°F6.1°C 37.4°F3.0°C 83% 1.0 mph S1.6 kmh S 2.5 mph4.0 kmh 29.50 in999.0 mb 0.11 in2.8 mm 0.00 in0.0 mm 0.11 in2.8 mm
04:40 PM 42.8°F6.0°C 37.4°F3.0°C 83% 0.5 mph SE0.8 kmh SE 2.5 mph4.0 kmh 29.50 in999.0 mb 0.11 in2.8 mm 0.00 in0.0 mm 0.11 in2.8 mm
04:45 PM 42.8°F6.0°C 37.4°F3.0°C 83% 0.3 mph ESE0.5 kmh ESE 1.6 mph2.6 kmh 29.50 in999.0 mb 0.11 in2.8 mm 0.00 in0.0 mm 0.11 in2.8 mm
04:50 PM 42.6°F5.9°C 39.2°F4.0°C 84% 0.4 mph SSE0.6 kmh SSE 1.1 mph1.8 kmh 29.50 in999.0 mb 0.11 in2.8 mm 0.00 in0.0 mm 0.11 in2.8 mm
04:55 PM 42.4°F5.8°C 39.2°F4.0°C 84% 0.4 mph S0.6 kmh S 1.1 mph1.8 kmh 29.50 in999.0 mb 0.11 in2.8 mm 0.00 in0.0 mm 0.11 in2.8 mm
05:00 PM 42.4°F5.8°C 39.2°F4.0°C 84% 0.2 mph SSE0.3 kmh SSE 1.1 mph1.8 kmh 29.50 in999.0 mb 0.24 in6.1 mm 0.14 in3.6 mm 0.24 in6.1 mm
05:05 PM 42.4°F5.8°C 39.2°F4.0°C 84% 0.5 mph SE0.8 kmh SE 2.7 mph4.3 kmh 29.50 in999.0 mb 0.24 in6.1 mm 0.00 in0.0 mm 0.24 in6.1 mm
05:10 PM 42.3°F5.7°C 37.4°F3.0°C 84% 0.6 mph SE1.0 kmh SE 2.7 mph4.3 kmh 29.50 in999.0 mb 0.24 in6.1 mm 0.00 in0.0 mm 0.24 in6.1 mm
05:15 PM 42.3°F5.7°C 37.4°F3.0°C 84% 0.3 mph SE0.5 kmh SE 2.5 mph4.0 kmh 29.50 in999.0 mb 0.35 in8.9 mm 1.32 in33.5 mm 0.35 in8.9 mm
05:20 PM 42.3°F5.7°C 39.2°F4.0°C 85% 0.5 mph SE0.8 kmh SE 1.6 mph2.6 kmh 29.47 in998.0 mb 0.35 in8.9 mm 0.00 in0.0 mm 0.35 in8.9 mm
05:25 PM 42.3°F5.7°C 39.2°F4.0°C 85% 1.2 mph E1.9 kmh E 2.9 mph4.7 kmh 29.47 in998.0 mb 0.35 in8.9 mm 0.00 in0.0 mm 0.35 in8.9 mm
05:30 PM 42.4°F5.8°C 39.2°F4.0°C 85% 1.1 mph ESE1.8 kmh ESE 2.9 mph4.7 kmh 29.47 in998.0 mb 0.35 in8.9 mm 0.00 in0.0 mm 0.46 in11.7 mm
05:35 PM 42.4°F5.8°C 39.2°F4.0°C 85% 0.7 mph SE1.1 kmh SE 2.0 mph3.2 kmh 29.47 in998.0 mb 0.35 in8.9 mm 0.00 in0.0 mm 0.46 in11.7 mm
05:40 PM 42.4°F5.8°C 39.2°F4.0°C 85% 0.8 mph SE1.3 kmh SE 1.3 mph2.1 kmh 29.47 in998.0 mb 0.35 in8.9 mm 0.00 in0.0 mm 0.46 in11.7 mm
05:45 PM 42.4°F5.8°C 39.2°F4.0°C 85% 1.0 mph SE1.6 kmh SE 2.5 mph4.0 kmh 29.47 in998.0 mb 0.35 in8.9 mm 0.00 in0.0 mm 0.46 in11.7 mm
05:50 PM 42.4°F5.8°C 39.2°F4.0°C 85% 0.8 mph SE1.3 kmh SE 2.5 mph4.0 kmh 29.45 in997.3 mb 0.35 in8.9 mm 0.00 in0.0 mm 0.46 in11.7 mm
05:55 PM 42.8°F6.0°C 39.2°F4.0°C 86% 0.9 mph SSE1.4 kmh SSE 3.1 mph5.0 kmh 29.45 in997.3 mb 0.46 in11.7 mm 1.32 in33.5 mm 0.57 in14.5 mm
06:00 PM 43.2°F6.2°C 39.2°F4.0°C 86% 2.2 mph S3.5 kmh S 3.4 mph5.5 kmh 29.45 in997.3 mb 0.34 in8.6 mm 0.00 in0.0 mm 0.57 in14.5 mm
06:05 PM 43.3°F6.3°C 39.2°F4.0°C 86% 4.2 mph S6.8 kmh S 8.7 mph14.0 kmh 29.47 in998.0 mb 0.34 in8.6 mm 0.00 in0.0 mm 0.57 in14.5 mm
06:10 PM 43.3°F6.3°C 39.2°F4.0°C 86% 3.7 mph S6.0 kmh S 8.7 mph14.0 kmh 29.47 in998.0 mb 0.34 in8.6 mm 0.00 in0.0 mm 0.57 in14.5 mm
06:15 PM 43.3°F6.3°C 39.2°F4.0°C 86% 2.5 mph S4.0 kmh S 6.0 mph9.7 kmh 29.47 in998.0 mb 0.23 in5.8 mm 0.00 in0.0 mm 0.57 in14.5 mm
06:20 PM 43.5°F6.4°C 39.2°F4.0°C 86% 2.3 mph SE3.7 kmh SE 3.8 mph6.1 kmh 29.45 in997.3 mb 0.23 in5.8 mm 0.00 in0.0 mm 0.57 in14.5 mm
06:25 PM 43.5°F6.4°C 39.2°F4.0°C 86% 1.8 mph SE2.9 kmh SE 3.8 mph6.1 kmh 29.45 in997.3 mb 0.11 in2.8 mm 0.00 in0.0 mm 0.57 in14.5 mm
06:30 PM 43.5°F6.4°C 41.0°F5.0°C 87% 1.5 mph SSE2.4 kmh SSE 3.8 mph6.1 kmh 29.45 in997.3 mb 0.11 in2.8 mm 0.00 in0.0 mm 0.57 in14.5 mm
06:35 PM 43.7°F6.5°C 41.0°F5.0°C 87% 2.5 mph S4.0 kmh S 5.6 mph9.0 kmh 29.45 in997.3 mb 0.11 in2.8 mm 0.00 in0.0 mm 0.57 in14.5 mm
06:40 PM 43.7°F6.5°C 41.0°F5.0°C 87% 3.4 mph SSE5.5 kmh SSE 7.8 mph12.6 kmh 29.45 in997.3 mb 0.11 in2.8 mm 0.00 in0.0 mm 0.57 in14.5 mm
06:45 PM 43.7°F6.5°C 41.0°F5.0°C 86% 3.7 mph SSE6.0 kmh SSE 8.1 mph13.0 kmh 29.45 in997.3 mb 0.11 in2.8 mm 0.00 in0.0 mm 0.57 in14.5 mm
06:50 PM 43.9°F6.6°C 41.0°F5.0°C 87% 4.2 mph S6.8 kmh S 8.1 mph13.0 kmh 29.45 in997.3 mb 0.11 in2.8 mm 0.00 in0.0 mm 0.57 in14.5 mm
06:55 PM 43.9°F6.6°C 41.0°F5.0°C 87% 4.4 mph SSW7.1 kmh SSW 7.8 mph12.6 kmh 29.45 in997.3 mb 0.00 in0.0 mm 0.00 in0.0 mm 0.57 in14.5 mm
07:00 PM 43.9°F6.6°C 41.0°F5.0°C 87% 4.1 mph S6.6 kmh S 7.8 mph12.6 kmh 29.45 in997.3 mb 0.00 in0.0 mm 0.00 in0.0 mm 0.57 in14.5 mm
07:05 PM 43.9°F6.6°C 41.0°F5.0°C 87% 3.4 mph SSE5.5 kmh SSE 6.0 mph9.7 kmh 29.45 in997.3 mb 0.00 in0.0 mm 0.00 in0.0 mm 0.57 in14.5 mm
07:10 PM 44.1°F6.7°C 41.0°F5.0°C 87% 3.4 mph SSE5.5 kmh SSE 6.0 mph9.7 kmh 29.45 in997.3 mb 0.00 in0.0 mm 0.00 in0.0 mm 0.57 in14.5 mm
07:15 PM 44.1°F6.7°C 41.0°F5.0°C 87% 2.8 mph SSE4.5 kmh SSE 4.9 mph7.9 kmh 29.45 in997.3 mb 0.00 in0.0 mm 0.00 in0.0 mm 0.57 in14.5 mm
07:20 PM 44.1°F6.7°C 41.0°F5.0°C 87% 2.9 mph S4.7 kmh S 5.6 mph9.0 kmh 29.45 in997.3 mb 0.00 in0.0 mm 0.00 in0.0 mm 0.57 in14.5 mm
07:25 PM 44.1°F6.7°C 41.0°F5.0°C 87% 2.8 mph S4.5 kmh S 5.6 mph9.0 kmh 29.45 in997.3 mb 0.00 in0.0 mm 0.00 in0.0 mm 0.57 in14.5 mm
07:30 PM 44.1°F6.7°C 41.0°F5.0°C 87% 3.5 mph S5.6 kmh S 7.2 mph11.6 kmh 29.45 in997.3 mb 0.00 in0.0 mm 0.00 in0.0 mm 0.57 in14.5 mm
07:35 PM 44.2°F6.8°C 41.0°F5.0°C 87% 5.7 mph S9.2 kmh S 10.1 mph16.3 kmh 29.41 in995.9 mb 0.00 in0.0 mm 0.00 in0.0 mm 0.57 in14.5 mm
07:40 PM 44.2°F6.8°C 41.0°F5.0°C 87% 5.7 mph SSE9.2 kmh SSE 10.1 mph16.3 kmh 29.41 in995.9 mb 0.00 in0.0 mm 0.00 in0.0 mm 0.57 in14.5 mm
07:45 PM 44.1°F6.7°C 41.0°F5.0°C 87% 4.5 mph S7.2 kmh S 7.8 mph12.6 kmh 29.41 in995.9 mb 0.00 in0.0 mm 0.00 in0.0 mm 0.57 in14.5 mm
07:50 PM 44.1°F6.7°C 41.0°F5.0°C 87% 3.8 mph S6.1 kmh S 6.9 mph11.1 kmh 29.45 in997.3 mb 0.00 in0.0 mm 0.00 in0.0 mm 0.57 in14.5 mm
07:55 PM 44.1°F6.7°C 41.0°F5.0°C 87% 3.7 mph S6.0 kmh S 8.1 mph13.0 kmh 29.45 in997.3 mb 0.00 in0.0 mm 0.00 in0.0 mm 0.57 in14.5 mm
08:00 PM 44.1°F6.7°C 41.0°F5.0°C 87% 4.0 mph S6.4 kmh S 8.1 mph13.0 kmh 29.45 in997.3 mb 0.00 in0.0 mm 0.00 in0.0 mm 0.57 in14.5 mm
08:05 PM 44.1°F6.7°C 41.0°F5.0°C 87% 4.5 mph S7.2 kmh S 10.3 mph16.6 kmh 29.41 in995.9 mb 0.00 in0.0 mm 0.00 in0.0 mm 0.57 in14.5 mm
08:10 PM 44.1°F6.7°C 41.0°F5.0°C 87% 5.5 mph S8.9 kmh S 10.3 mph16.6 kmh 29.41 in995.9 mb 0.00 in0.0 mm 0.00 in0.0 mm 0.57 in14.5 mm
08:15 PM 44.1°F6.7°C 41.0°F5.0°C 87% 5.5 mph S8.9 kmh S 6.3 mph10.1 kmh 29.41 in995.9 mb 0.00 in0.0 mm 0.00 in0.0 mm 0.57 in14.5 mm
08:20 PM 44.1°F6.7°C 41.0°F5.0°C 87% 7.3 mph SSE11.7 kmh SSE 11.0 mph17.7 kmh 29.41 in995.9 mb 0.00 in0.0 mm 0.00 in0.0 mm 0.57 in14.5 mm
08:25 PM 44.2°F6.8°C 41.0°F5.0°C 87% 8.4 mph S13.5 kmh S 11.0 mph17.7 kmh 29.41 in995.9 mb 0.00 in0.0 mm 0.00 in0.0 mm 0.57 in14.5 mm
08:30 PM 44.1°F6.7°C 41.0°F5.0°C 87% 7.9 mph S12.7 kmh S 10.5 mph16.9 kmh 29.41 in995.9 mb 0.00 in0.0 mm 0.00 in0.0 mm 0.57 in14.5 mm
08:35 PM 44.1°F6.7°C 41.0°F5.0°C 87% 7.9 mph S12.7 kmh S 12.3 mph19.8 kmh 29.41 in995.9 mb 0.00 in0.0 mm 0.00 in0.0 mm 0.57 in14.5 mm
08:40 PM 44.1°F6.7°C 41.0°F5.0°C 87% 8.3 mph S13.4 kmh S 12.5 mph20.1 kmh 29.41 in995.9 mb 0.00 in0.0 mm 0.00 in0.0 mm 0.57 in14.5 mm
08:45 PM 44.1°F6.7°C 41.0°F5.0°C 87% 7.8 mph S12.6 kmh S 12.5 mph20.1 kmh 29.41 in995.9 mb 0.00 in0.0 mm 0.00 in0.0 mm 0.57 in14.5 mm
08:50 PM 43.9°F6.6°C 41.0°F5.0°C 87% 8.8 mph S14.2 kmh S 15.4 mph24.8 kmh 29.41 in995.9 mb 0.00 in0.0 mm 0.00 in0.0 mm 0.57 in14.5 mm
08:55 PM 43.9°F6.6°C 41.0°F5.0°C 87% 9.6 mph S15.4 kmh S 15.4 mph24.8 kmh 29.41 in995.9 mb 0.00 in0.0 mm 0.00 in0.0 mm 0.57 in14.5 mm
09:00 PM 43.9°F6.6°C 41.0°F5.0°C 87% 10.1 mph S16.3 kmh S 15.4 mph24.8 kmh 29.41 in995.9 mb 0.00 in0.0 mm 0.00 in0.0 mm 0.57 in14.5 mm
09:05 PM 43.9°F6.6°C 41.0°F5.0°C 87% 8.9 mph S14.3 kmh S 13.0 mph20.9 kmh 29.41 in995.9 mb 0.00 in0.0 mm 0.00 in0.0 mm 0.57 in14.5 mm
09:10 PM 43.9°F6.6°C 41.0°F5.0°C 87% 7.9 mph S12.7 kmh S 11.0 mph17.7 kmh 29.41 in995.9 mb 0.00 in0.0 mm 0.00 in0.0 mm 0.57 in14.5 mm
09:15 PM 43.9°F6.6°C 41.0°F5.0°C 87% 7.0 mph S11.3 kmh S 8.7 mph14.0 kmh 29.41 in995.9 mb 0.00 in0.0 mm 0.00 in0.0 mm 0.57 in14.5 mm
09:20 PM 43.7°F6.5°C 41.0°F5.0°C 87% 6.6 mph S10.6 kmh S 8.7 mph14.0 kmh 29.41 in995.9 mb 0.00 in0.0 mm 0.00 in0.0 mm 0.57 in14.5 mm
09:25 PM 43.7°F6.5°C 41.0°F5.0°C 87% 5.0 mph S8.0 kmh S 8.7 mph14.0 kmh 29.41 in995.9 mb 0.00 in0.0 mm 0.00 in0.0 mm 0.57 in14.5 mm
09:30 PM 43.7°F6.5°C 41.0°F5.0°C 87% 4.8 mph S7.7 kmh S 9.6 mph15.4 kmh 29.41 in995.9 mb 0.00 in0.0 mm 0.00 in0.0 mm 0.57 in14.5 mm
09:35 PM 43.7°F6.5°C 41.0°F5.0°C 87% 6.3 mph S10.1 kmh S 9.6 mph15.4 kmh 29.41 in995.9 mb 0.00 in0.0 mm 0.00 in0.0 mm 0.57 in14.5 mm
09:40 PM 43.7°F6.5°C 41.0°F5.0°C 87% 6.8 mph S10.9 kmh S 12.8 mph20.6 kmh 29.41 in995.9 mb 0.00 in0.0 mm 0.00 in0.0 mm 0.57 in14.5 mm
09:45 PM 43.7°F6.5°C 41.0°F5.0°C 88% 6.6 mph S10.6 kmh S 12.8 mph20.6 kmh 29.41 in995.9 mb 0.00 in0.0 mm 0.00 in0.0 mm 0.57 in14.5 mm
09:50 PM 43.7°F6.5°C 41.0°F5.0°C 88% 5.8 mph S9.3 kmh S 12.8 mph20.6 kmh 29.41 in995.9 mb 0.00 in0.0 mm 0.00 in0.0 mm 0.57 in14.5 mm
09:55 PM 43.7°F6.5°C 41.0°F5.0°C 88% 5.3 mph S8.5 kmh S 11.9 mph19.2 kmh 29.41 in995.9 mb 0.00 in0.0 mm 0.00 in0.0 mm 0.57 in14.5 mm
10:00 PM 43.7°F6.5°C 41.0°F5.0°C 88% 5.6 mph SSW9.0 kmh SSW 8.7 mph14.0 kmh 29.41 in995.9 mb 0.00 in0.0 mm 0.00 in0.0 mm 0.57 in14.5 mm
10:05 PM 43.7°F6.5°C 41.0°F5.0°C 88% 6.0 mph S9.7 kmh S 8.7 mph14.0 kmh 29.41 in995.9 mb 0.00 in0.0 mm 0.00 in0.0 mm 0.57 in14.5 mm
10:10 PM 43.7°F6.5°C 41.0°F5.0°C 88% 6.5 mph S10.5 kmh S 10.3 mph16.6 kmh 29.41 in995.9 mb 0.13 in3.3 mm 1.56 in39.6 mm 0.70 in17.8 mm
10:15 PM 43.7°F6.5°C 41.0°F5.0°C 88% 6.1 mph SSW9.8 kmh SSW 10.3 mph16.6 kmh 29.41 in995.9 mb 0.13 in3.3 mm 0.00 in0.0 mm 0.70 in17.8 mm
10:20 PM 43.7°F6.5°C 41.0°F5.0°C 88% 5.8 mph SSW9.3 kmh SSW 10.7 mph17.2 kmh 29.39 in995.3 mb 0.13 in3.3 mm 0.00 in0.0 mm 0.70 in17.8 mm
10:25 PM 43.7°F6.5°C 41.0°F5.0°C 88% 5.3 mph S8.5 kmh S 10.7 mph17.2 kmh 29.39 in995.3 mb 0.13 in3.3 mm 0.00 in0.0 mm 0.70 in17.8 mm
10:30 PM 43.7°F6.5°C 41.0°F5.0°C 88% 4.6 mph S7.4 kmh S 10.7 mph17.2 kmh 29.39 in995.3 mb 0.24 in6.1 mm 1.32 in33.5 mm 0.81 in20.6 mm
10:35 PM 43.7°F6.5°C 41.0°F5.0°C 88% 5.1 mph S8.2 kmh S 10.7 mph17.2 kmh 29.39 in995.3 mb 0.24 in6.1 mm 0.00 in0.0 mm 0.81 in20.6 mm
10:40 PM 43.7°F6.5°C 41.0°F5.0°C 88% 5.4 mph S8.7 kmh S 7.6 mph12.2 kmh 29.39 in995.3 mb 0.24 in6.1 mm 0.00 in0.0 mm 0.81 in20.6 mm
10:45 PM 43.7°F6.5°C 41.0°F5.0°C 88% 4.7 mph S7.6 kmh S 7.6 mph12.2 kmh 29.39 in995.3 mb 0.24 in6.1 mm 0.00 in0.0 mm 0.81 in20.6 mm
10:50 PM 43.7°F6.5°C 41.0°F5.0°C 88% 3.6 mph S5.8 kmh S 6.3 mph10.1 kmh 29.39 in995.3 mb 0.24 in6.1 mm 0.00 in0.0 mm 0.81 in20.6 mm
10:55 PM 43.7°F6.5°C 41.0°F5.0°C 88% 3.2 mph S5.1 kmh S 5.6 mph9.0 kmh 29.39 in995.3 mb 0.24 in6.1 mm 0.00 in0.0 mm 0.81 in20.6 mm
11:00 PM 43.9°F6.6°C 41.0°F5.0°C 88% 4.0 mph S6.4 kmh S 7.4 mph11.9 kmh 29.39 in995.3 mb 0.24 in6.1 mm 0.00 in0.0 mm 0.81 in20.6 mm
11:05 PM 43.9°F6.6°C 41.0°F5.0°C 88% 6.1 mph SSW9.8 kmh SSW 10.5 mph16.9 kmh 29.36 in994.2 mb 0.24 in6.1 mm 0.00 in0.0 mm 0.81 in20.6 mm
11:10 PM 43.9°F6.6°C 41.0°F5.0°C 88% 7.9 mph SSW12.7 kmh SSW 13.2 mph21.2 kmh 29.36 in994.2 mb 0.11 in2.8 mm 0.00 in0.0 mm 0.81 in20.6 mm
11:15 PM 43.9°F6.6°C 41.0°F5.0°C 88% 8.3 mph S13.4 kmh S 13.2 mph21.2 kmh 29.36 in994.2 mb 0.11 in2.8 mm 0.00 in0.0 mm 0.81 in20.6 mm
11:20 PM 43.9°F6.6°C 41.0°F5.0°C 88% 6.6 mph S10.6 kmh S 10.7 mph17.2 kmh 29.33 in993.2 mb 0.11 in2.8 mm 0.00 in0.0 mm 0.81 in20.6 mm
11:25 PM 44.1°F6.7°C 41.0°F5.0°C 88% 5.9 mph S9.5 kmh S 14.8 mph23.8 kmh 29.33 in993.2 mb 0.11 in2.8 mm 0.00 in0.0 mm 0.81 in20.6 mm
11:30 PM 44.1°F6.7°C 41.0°F5.0°C 88% 6.5 mph S10.5 kmh S 14.8 mph23.8 kmh 29.33 in993.2 mb 0.00 in0.0 mm 0.00 in0.0 mm 0.81 in20.6 mm
11:35 PM 44.1°F6.7°C 41.0°F5.0°C 88% 6.0 mph S9.7 kmh S 8.7 mph14.0 kmh 29.39 in995.3 mb 0.00 in0.0 mm 0.00 in0.0 mm 0.81 in20.6 mm
11:40 PM 44.1°F6.7°C 41.0°F5.0°C 88% 7.9 mph S12.7 kmh S 17.0 mph27.4 kmh 29.39 in995.3 mb 0.00 in0.0 mm 0.00 in0.0 mm 0.81 in20.6 mm
11:45 PM 44.1°F6.7°C 41.0°F5.0°C 88% 8.6 mph S13.8 kmh S 17.0 mph27.4 kmh 29.39 in995.3 mb 0.00 in0.0 mm 0.00 in0.0 mm 0.81 in20.6 mm
11:50 PM 44.1°F6.7°C 41.0°F5.0°C 88% 6.8 mph S10.9 kmh S 17.0 mph27.4 kmh 29.39 in995.3 mb 0.00 in0.0 mm 0.00 in0.0 mm 0.81 in20.6 mm
11:55 PM 44.1°F6.7°C 41.0°F5.0°C 88% 5.9 mph S9.5 kmh S 10.1 mph16.3 kmh 29.39 in995.3 mb 0.00 in0.0 mm 0.00 in0.0 mm 0.81 in20.6 mm